sensor_id;sensor_type;location;lat;lon;timestamp;P1;durP1;ratioP1;P2;durP2;ratioP2
3677;SDS011;1855;50.934;6.958;2023-05-16T00:01:55;7.30;;;6.60;;
3677;SDS011;1855;50.934;6.958;2023-05-16T00:04:21;8.27;;;7.23;;
3677;SDS011;1855;50.934;6.958;2023-05-16T00:06:48;8.73;;;7.75;;
3677;SDS011;1855;50.934;6.958;2023-05-16T00:09:16;9.95;;;7.82;;
3677;SDS011;1855;50.934;6.958;2023-05-16T00:11:43;9.10;;;7.10;;
3677;SDS011;1855;50.934;6.958;2023-05-16T00:14:10;8.38;;;7.35;;
3677;SDS011;1855;50.934;6.958;2023-05-16T00:16:39;9.38;;;7.90;;
3677;SDS011;1855;50.934;6.958;2023-05-16T00:19:06;8.70;;;7.50;;
3677;SDS011;1855;50.934;6.958;2023-05-16T00:21:34;9.20;;;7.60;;
3677;SDS011;1855;50.934;6.958;2023-05-16T00:24:00;10.25;;;8.20;;
3677;SDS011;1855;50.934;6.958;2023-05-16T00:26:29;9.15;;;8.35;;
3677;SDS011;1855;50.934;6.958;2023-05-16T00:28:56;11.20;;;9.40;;
3677;SDS011;1855;50.934;6.958;2023-05-16T00:31:23;13.85;;;9.55;;
3677;SDS011;1855;50.934;6.958;2023-05-16T00:33:49;10.50;;;9.35;;
3677;SDS011;1855;50.934;6.958;2023-05-16T00:36:16;10.50;;;9.30;;
3677;SDS011;1855;50.934;6.958;2023-05-16T00:38:43;11.47;;;9.90;;
3677;SDS011;1855;50.934;6.958;2023-05-16T00:41:09;11.20;;;9.17;;
3677;SDS011;1855;50.934;6.958;2023-05-16T00:43:38;11.30;;;9.40;;
3677;SDS011;1855;50.934;6.958;2023-05-16T00:46:04;10.60;;;9.27;;
3677;SDS011;1855;50.934;6.958;2023-05-16T00:48:31;10.30;;;9.30;;
3677;SDS011;1855;50.934;6.958;2023-05-16T00:50:59;12.10;;;10.77;;
3677;SDS011;1855;50.934;6.958;2023-05-16T00:53:26;13.88;;;12.48;;
3677;SDS011;1855;50.934;6.958;2023-05-16T00:55:53;13.73;;;12.30;;
3677;SDS011;1855;50.934;6.958;2023-05-16T00:58:21;16.70;;;14.90;;
3677;SDS011;1855;50.934;6.958;2023-05-16T01:00:49;18.90;;;15.95;;
3677;SDS011;1855;50.934;6.958;2023-05-16T01:03:16;22.10;;;18.35;;
3677;SDS011;1855;50.934;6.958;2023-05-16T01:05:43;21.13;;;18.92;;
3677;SDS011;1855;50.934;6.958;2023-05-16T01:08:10;20.90;;;18.70;;
3677;SDS011;1855;50.934;6.958;2023-05-16T01:10:39;22.27;;;19.85;;
3677;SDS011;1855;50.934;6.958;2023-05-16T01:13:11;22.17;;;19.77;;
3677;SDS011;1855;50.934;6.958;2023-05-16T01:15:44;24.38;;;19.48;;
3677;SDS011;1855;50.934;6.958;2023-05-16T01:18:17;24.00;;;20.83;;
3677;SDS011;1855;50.934;6.958;2023-05-16T01:20:52;22.83;;;19.43;;
3677;SDS011;1855;50.934;6.958;2023-05-16T01:23:32;25.05;;;20.85;;
3677;SDS011;1855;50.934;6.958;2023-05-16T01:26:15;21.50;;;18.88;;
3677;SDS011;1855;50.934;6.958;2023-05-16T01:28:45;19.67;;;17.67;;
3677;SDS011;1855;50.934;6.958;2023-05-16T01:31:14;21.42;;;18.30;;
3677;SDS011;1855;50.934;6.958;2023-05-16T01:33:41;23.15;;;18.65;;
3677;SDS011;1855;50.934;6.958;2023-05-16T01:36:10;20.92;;;18.27;;
3677;SDS011;1855;50.934;6.958;2023-05-16T01:38:45;25.73;;;19.17;;
3677;SDS011;1855;50.934;6.958;2023-05-16T01:41:24;24.42;;;19.42;;
3677;SDS011;1855;50.934;6.958;2023-05-16T01:43:56;25.80;;;21.08;;
3677;SDS011;1855;50.934;6.958;2023-05-16T01:46:27;25.10;;;20.70;;
3677;SDS011;1855;50.934;6.958;2023-05-16T01:49:01;23.42;;;20.60;;
3677;SDS011;1855;50.934;6.958;2023-05-16T01:51:40;27.70;;;24.00;;
3677;SDS011;1855;50.934;6.958;2023-05-16T01:54:11;26.60;;;22.80;;
3677;SDS011;1855;50.934;6.958;2023-05-16T01:56:44;27.90;;;24.05;;
3677;SDS011;1855;50.934;6.958;2023-05-16T01:59:16;28.42;;;24.52;;
3677;SDS011;1855;50.934;6.958;2023-05-16T02:01:45;28.83;;;24.10;;
3677;SDS011;1855;50.934;6.958;2023-05-16T02:04:11;30.65;;;25.40;;
3677;SDS011;1855;50.934;6.958;2023-05-16T02:06:39;28.37;;;24.13;;
3677;SDS011;1855;50.934;6.958;2023-05-16T02:09:06;32.22;;;26.40;;
3677;SDS011;1855;50.934;6.958;2023-05-16T02:11:33;31.05;;;25.50;;
3677;SDS011;1855;50.934;6.958;2023-05-16T02:14:01;28.48;;;23.95;;
3677;SDS011;1855;50.934;6.958;2023-05-16T02:16:28;31.58;;;24.98;;
3677;SDS011;1855;50.934;6.958;2023-05-16T02:18:55;30.02;;;24.65;;
3677;SDS011;1855;50.934;6.958;2023-05-16T02:21:22;32.90;;;25.88;;
3677;SDS011;1855;50.934;6.958;2023-05-16T02:23:49;34.47;;;26.10;;
3677;SDS011;1855;50.934;6.958;2023-05-16T02:26:16;29.60;;;24.17;;
3677;SDS011;1855;50.934;6.958;2023-05-16T02:28:42;28.15;;;21.80;;
3677;SDS011;1855;50.934;6.958;2023-05-16T02:31:11;23.45;;;19.40;;
3677;SDS011;1855;50.934;6.958;2023-05-16T02:33:37;17.23;;;14.00;;
3677;SDS011;1855;50.934;6.958;2023-05-16T02:36:05;19.30;;;13.27;;
3677;SDS011;1855;50.934;6.958;2023-05-16T02:38:32;14.30;;;11.27;;
3677;SDS011;1855;50.934;6.958;2023-05-16T02:40:59;13.13;;;10.05;;
3677;SDS011;1855;50.934;6.958;2023-05-16T02:43:26;13.43;;;9.10;;
3677;SDS011;1855;50.934;6.958;2023-05-16T02:45:53;20.10;;;10.27;;
3677;SDS011;1855;50.934;6.958;2023-05-16T02:48:21;12.40;;;9.40;;
3677;SDS011;1855;50.934;6.958;2023-05-16T02:50:48;17.10;;;9.10;;
3677;SDS011;1855;50.934;6.958;2023-05-16T02:53:14;14.10;;;9.10;;
3677;SDS011;1855;50.934;6.958;2023-05-16T02:55:41;14.07;;;8.23;;
3677;SDS011;1855;50.934;6.958;2023-05-16T02:58:08;16.15;;;8.52;;
3677;SDS011;1855;50.934;6.958;2023-05-16T03:00:35;11.07;;;7.40;;
3677;SDS011;1855;50.934;6.958;2023-05-16T03:03:01;10.20;;;7.00;;
3677;SDS011;1855;50.934;6.958;2023-05-16T03:05:31;15.05;;;7.53;;
3677;SDS011;1855;50.934;6.958;2023-05-16T03:07:58;15.10;;;7.63;;
3677;SDS011;1855;50.934;6.958;2023-05-16T03:10:24;14.15;;;8.45;;
3677;SDS011;1855;50.934;6.958;2023-05-16T03:12:51;15.05;;;8.77;;
3677;SDS011;1855;50.934;6.958;2023-05-16T03:15:18;18.83;;;10.27;;
3677;SDS011;1855;50.934;6.958;2023-05-16T03:17:45;17.33;;;9.95;;
3677;SDS011;1855;50.934;6.958;2023-05-16T03:20:12;14.43;;;9.85;;
3677;SDS011;1855;50.934;6.958;2023-05-16T03:22:40;14.70;;;10.50;;
3677;SDS011;1855;50.934;6.958;2023-05-16T03:25:09;17.92;;;10.65;;
3677;SDS011;1855;50.934;6.958;2023-05-16T03:27:35;18.33;;;11.18;;
3677;SDS011;1855;50.934;6.958;2023-05-16T03:30:02;19.75;;;11.23;;
3677;SDS011;1855;50.934;6.958;2023-05-16T03:32:32;18.25;;;10.73;;
3677;SDS011;1855;50.934;6.958;2023-05-16T03:34:58;16.83;;;10.50;;
3677;SDS011;1855;50.934;6.958;2023-05-16T03:37:25;17.00;;;11.10;;
3677;SDS011;1855;50.934;6.958;2023-05-16T03:39:54;21.55;;;11.55;;
3677;SDS011;1855;50.934;6.958;2023-05-16T03:42:21;20.75;;;11.32;;
3677;SDS011;1855;50.934;6.958;2023-05-16T03:44:47;18.35;;;12.32;;
3677;SDS011;1855;50.934;6.958;2023-05-16T03:47:14;18.80;;;12.50;;
3677;SDS011;1855;50.934;6.958;2023-05-16T03:49:41;20.07;;;12.60;;
3677;SDS011;1855;50.934;6.958;2023-05-16T03:52:07;20.63;;;12.97;;
3677;SDS011;1855;50.934;6.958;2023-05-16T03:54:34;20.58;;;13.52;;
3677;SDS011;1855;50.934;6.958;2023-05-16T03:57:02;20.10;;;11.98;;
3677;SDS011;1855;50.934;6.958;2023-05-16T03:59:29;20.20;;;12.20;;
3677;SDS011;1855;50.934;6.958;2023-05-16T04:01:56;20.25;;;11.98;;
3677;SDS011;1855;50.934;6.958;2023-05-16T04:04:23;17.15;;;12.40;;
3677;SDS011;1855;50.934;6.958;2023-05-16T04:06:50;19.15;;;11.80;;
3677;SDS011;1855;50.934;6.958;2023-05-16T04:09:16;19.50;;;12.85;;
3677;SDS011;1855;50.934;6.958;2023-05-16T04:11:43;20.25;;;10.90;;
3677;SDS011;1855;50.934;6.958;2023-05-16T04:14:11;17.10;;;10.95;;
3677;SDS011;1855;50.934;6.958;2023-05-16T04:16:39;19.20;;;10.95;;
3677;SDS011;1855;50.934;6.958;2023-05-16T04:19:06;15.32;;;10.43;;
3677;SDS011;1855;50.934;6.958;2023-05-16T04:21:33;17.27;;;10.32;;
3677;SDS011;1855;50.934;6.958;2023-05-16T04:24:00;18.08;;;11.25;;
3677;SDS011;1855;50.934;6.958;2023-05-16T04:26:27;16.70;;;10.60;;
3677;SDS011;1855;50.934;6.958;2023-05-16T04:28:54;18.42;;;11.23;;
3677;SDS011;1855;50.934;6.958;2023-05-16T04:31:22;19.85;;;11.65;;
3677;SDS011;1855;50.934;6.958;2023-05-16T04:33:50;21.98;;;10.98;;
3677;SDS011;1855;50.934;6.958;2023-05-16T04:36:18;13.93;;;11.27;;
3677;SDS011;1855;50.934;6.958;2023-05-16T04:38:45;18.33;;;10.52;;
3677;SDS011;1855;50.934;6.958;2023-05-16T04:41:11;14.93;;;9.10;;
3677;SDS011;1855;50.934;6.958;2023-05-16T04:43:38;17.35;;;8.35;;
3677;SDS011;1855;50.934;6.958;2023-05-16T04:46:06;15.68;;;8.50;;
3677;SDS011;1855;50.934;6.958;2023-05-16T04:48:34;16.60;;;7.72;;
3677;SDS011;1855;50.934;6.958;2023-05-16T04:51:01;13.32;;;7.18;;
3677;SDS011;1855;50.934;6.958;2023-05-16T04:53:27;10.93;;;6.85;;
3677;SDS011;1855;50.934;6.958;2023-05-16T04:55:54;15.53;;;6.17;;
3677;SDS011;1855;50.934;6.958;2023-05-16T04:58:21;12.18;;;6.00;;
3677;SDS011;1855;50.934;6.958;2023-05-16T05:00:48;13.35;;;5.90;;
3677;SDS011;1855;50.934;6.958;2023-05-16T05:03:16;11.55;;;5.47;;
3677;SDS011;1855;50.934;6.958;2023-05-16T05:05:44;16.75;;;6.20;;
3677;SDS011;1855;50.934;6.958;2023-05-16T05:08:12;10.80;;;4.60;;
3677;SDS011;1855;50.934;6.958;2023-05-16T05:10:38;13.60;;;4.85;;
3677;SDS011;1855;50.934;6.958;2023-05-16T05:13:05;10.47;;;4.50;;
3677;SDS011;1855;50.934;6.958;2023-05-16T05:15:32;12.35;;;4.53;;
3677;SDS011;1855;50.934;6.958;2023-05-16T05:17:59;10.00;;;4.20;;
3677;SDS011;1855;50.934;6.958;2023-05-16T05:20:26;11.20;;;4.53;;
3677;SDS011;1855;50.934;6.958;2023-05-16T05:22:54;14.73;;;3.90;;
3677;SDS011;1855;50.934;6.958;2023-05-16T05:25:21;9.77;;;3.47;;
3677;SDS011;1855;50.934;6.958;2023-05-16T05:27:48;10.63;;;3.60;;
3677;SDS011;1855;50.934;6.958;2023-05-16T05:30:15;12.52;;;3.95;;
3677;SDS011;1855;50.934;6.958;2023-05-16T05:32:42;12.70;;;4.18;;
3677;SDS011;1855;50.934;6.958;2023-05-16T05:35:08;8.70;;;4.00;;
3677;SDS011;1855;50.934;6.958;2023-05-16T05:37:35;14.27;;;4.30;;
3677;SDS011;1855;50.934;6.958;2023-05-16T05:40:04;11.82;;;3.72;;
3677;SDS011;1855;50.934;6.958;2023-05-16T05:42:32;11.57;;;4.40;;
3677;SDS011;1855;50.934;6.958;2023-05-16T05:44:59;11.07;;;3.92;;
3677;SDS011;1855;50.934;6.958;2023-05-16T05:47:26;11.52;;;3.88;;
3677;SDS011;1855;50.934;6.958;2023-05-16T05:49:52;13.52;;;3.72;;
3677;SDS011;1855;50.934;6.958;2023-05-16T05:52:19;11.40;;;3.78;;
3677;SDS011;1855;50.934;6.958;2023-05-16T05:54:46;13.32;;;3.90;;
3677;SDS011;1855;50.934;6.958;2023-05-16T05:57:14;11.25;;;3.80;;
3677;SDS011;1855;50.934;6.958;2023-05-16T05:59:41;9.80;;;4.00;;
3677;SDS011;1855;50.934;6.958;2023-05-16T06:02:08;8.20;;;3.30;;
3677;SDS011;1855;50.934;6.958;2023-05-16T06:04:34;11.00;;;3.50;;
3677;SDS011;1855;50.934;6.958;2023-05-16T06:07:01;9.00;;;3.10;;
3677;SDS011;1855;50.934;6.958;2023-05-16T06:09:28;11.00;;;3.00;;
3677;SDS011;1855;50.934;6.958;2023-05-16T06:11:55;12.00;;;3.40;;
3677;SDS011;1855;50.934;6.958;2023-05-16T06:14:23;10.10;;;3.30;;
3677;SDS011;1855;50.934;6.958;2023-05-16T06:16:50;8.93;;;3.50;;
3677;SDS011;1855;50.934;6.958;2023-05-16T06:19:17;9.48;;;2.70;;
3677;SDS011;1855;50.934;6.958;2023-05-16T06:21:43;7.53;;;3.10;;
3677;SDS011;1855;50.934;6.958;2023-05-16T06:24:10;11.73;;;3.03;;
3677;SDS011;1855;50.934;6.958;2023-05-16T06:26:37;8.65;;;3.17;;
3677;SDS011;1855;50.934;6.958;2023-05-16T06:29:04;11.63;;;3.40;;
3677;SDS011;1855;50.934;6.958;2023-05-16T06:31:32;9.80;;;2.97;;
3677;SDS011;1855;50.934;6.958;2023-05-16T06:33:59;9.05;;;3.10;;
3677;SDS011;1855;50.934;6.958;2023-05-16T06:36:25;11.18;;;3.60;;
3677;SDS011;1855;50.934;6.958;2023-05-16T06:38:52;9.15;;;3.45;;
3677;SDS011;1855;50.934;6.958;2023-05-16T06:41:19;8.52;;;2.60;;
3677;SDS011;1855;50.934;6.958;2023-05-16T06:43:45;7.57;;;2.70;;
3677;SDS011;1855;50.934;6.958;2023-05-16T06:46:12;7.63;;;2.80;;
3677;SDS011;1855;50.934;6.958;2023-05-16T06:48:40;7.60;;;2.70;;
3677;SDS011;1855;50.934;6.958;2023-05-16T06:51:07;8.88;;;3.00;;
3677;SDS011;1855;50.934;6.958;2023-05-16T06:53:33;6.25;;;2.20;;
3677;SDS011;1855;50.934;6.958;2023-05-16T06:56:00;8.27;;;2.83;;
3677;SDS011;1855;50.934;6.958;2023-05-16T06:58:27;5.82;;;2.22;;
3677;SDS011;1855;50.934;6.958;2023-05-16T07:00:54;6.82;;;2.60;;
3677;SDS011;1855;50.934;6.958;2023-05-16T07:03:21;7.13;;;2.38;;
3677;SDS011;1855;50.934;6.958;2023-05-16T07:05:49;12.18;;;3.00;;
3677;SDS011;1855;50.934;6.958;2023-05-16T07:08:17;8.05;;;3.30;;
3677;SDS011;1855;50.934;6.958;2023-05-16T07:10:43;7.90;;;2.70;;
3677;SDS011;1855;50.934;6.958;2023-05-16T07:13:10;7.50;;;2.20;;
3677;SDS011;1855;50.934;6.958;2023-05-16T07:15:37;6.93;;;2.58;;
3677;SDS011;1855;50.934;6.958;2023-05-16T07:18:04;6.90;;;2.40;;
3677;SDS011;1855;50.934;6.958;2023-05-16T07:20:30;10.90;;;3.17;;
3677;SDS011;1855;50.934;6.958;2023-05-16T07:22:59;7.60;;;3.28;;
3677;SDS011;1855;50.934;6.958;2023-05-16T07:25:25;7.60;;;2.65;;
3677;SDS011;1855;50.934;6.958;2023-05-16T07:27:52;8.00;;;3.10;;
3677;SDS011;1855;50.934;6.958;2023-05-16T07:30:19;8.35;;;2.67;;
3677;SDS011;1855;50.934;6.958;2023-05-16T07:32:46;5.13;;;2.40;;
3677;SDS011;1855;50.934;6.958;2023-05-16T07:35:13;11.68;;;2.88;;
3677;SDS011;1855;50.934;6.958;2023-05-16T07:37:40;8.95;;;2.50;;
3677;SDS011;1855;50.934;6.958;2023-05-16T07:40:09;5.40;;;2.40;;
3677;SDS011;1855;50.934;6.958;2023-05-16T07:42:36;8.07;;;2.70;;
3677;SDS011;1855;50.934;6.958;2023-05-16T07:45:03;6.40;;;2.40;;
3677;SDS011;1855;50.934;6.958;2023-05-16T07:47:32;7.28;;;2.28;;
3677;SDS011;1855;50.934;6.958;2023-05-16T07:49:58;5.55;;;1.90;;
3677;SDS011;1855;50.934;6.958;2023-05-16T07:52:25;6.00;;;2.10;;
3677;SDS011;1855;50.934;6.958;2023-05-16T07:54:52;6.35;;;2.00;;
3677;SDS011;1855;50.934;6.958;2023-05-16T07:57:20;7.47;;;2.47;;
3677;SDS011;1855;50.934;6.958;2023-05-16T07:59:47;6.88;;;2.20;;
3677;SDS011;1855;50.934;6.958;2023-05-16T08:02:16;5.25;;;2.08;;
3677;SDS011;1855;50.934;6.958;2023-05-16T08:04:43;4.85;;;2.00;;
3677;SDS011;1855;50.934;6.958;2023-05-16T08:07:09;6.65;;;2.13;;
3677;SDS011;1855;50.934;6.958;2023-05-16T08:09:36;6.28;;;2.15;;
3677;SDS011;1855;50.934;6.958;2023-05-16T08:12:03;5.43;;;2.20;;
3677;SDS011;1855;50.934;6.958;2023-05-16T08:14:31;5.00;;;2.20;;
3677;SDS011;1855;50.934;6.958;2023-05-16T08:16:58;5.95;;;2.22;;
3677;SDS011;1855;50.934;6.958;2023-05-16T08:19:25;5.88;;;2.60;;
3677;SDS011;1855;50.934;6.958;2023-05-16T08:21:53;6.82;;;3.60;;
3677;SDS011;1855;50.934;6.958;2023-05-16T08:24:20;8.02;;;3.20;;
3677;SDS011;1855;50.934;6.958;2023-05-16T08:26:47;7.05;;;2.90;;
3677;SDS011;1855;50.934;6.958;2023-05-16T08:29:13;6.75;;;2.85;;
3677;SDS011;1855;50.934;6.958;2023-05-16T08:31:41;7.05;;;3.00;;
3677;SDS011;1855;50.934;6.958;2023-05-16T08:34:08;4.88;;;2.80;;
3677;SDS011;1855;50.934;6.958;2023-05-16T08:36:35;6.90;;;2.92;;
3677;SDS011;1855;50.934;6.958;2023-05-16T08:39:02;7.30;;;3.53;;
3677;SDS011;1855;50.934;6.958;2023-05-16T08:41:29;5.57;;;3.40;;
3677;SDS011;1855;50.934;6.958;2023-05-16T08:43:56;6.00;;;3.10;;
3677;SDS011;1855;50.934;6.958;2023-05-16T08:46:23;6.07;;;2.70;;
3677;SDS011;1855;50.934;6.958;2023-05-16T08:48:57;5.82;;;2.70;;
3677;SDS011;1855;50.934;6.958;2023-05-16T08:51:25;5.07;;;2.80;;
3677;SDS011;1855;50.934;6.958;2023-05-16T08:53:59;5.88;;;2.40;;
3677;SDS011;1855;50.934;6.958;2023-05-16T08:56:28;6.43;;;2.80;;
3677;SDS011;1855;50.934;6.958;2023-05-16T08:58:56;4.97;;;2.90;;
3677;SDS011;1855;50.934;6.958;2023-05-16T09:01:23;4.53;;;2.60;;
3677;SDS011;1855;50.934;6.958;2023-05-16T09:03:50;8.15;;;2.60;;
3677;SDS011;1855;50.934;6.958;2023-05-16T09:06:19;4.38;;;2.60;;
3677;SDS011;1855;50.934;6.958;2023-05-16T09:08:45;5.75;;;2.65;;
3677;SDS011;1855;50.934;6.958;2023-05-16T09:11:13;4.68;;;2.50;;
3677;SDS011;1855;50.934;6.958;2023-05-16T09:13:39;5.38;;;2.40;;
3677;SDS011;1855;50.934;6.958;2023-05-16T09:16:06;4.10;;;2.00;;
3677;SDS011;1855;50.934;6.958;2023-05-16T09:18:33;4.90;;;2.13;;
3677;SDS011;1855;50.934;6.958;2023-05-16T09:21:01;4.90;;;2.00;;
3677;SDS011;1855;50.934;6.958;2023-05-16T09:23:29;3.47;;;2.28;;
3677;SDS011;1855;50.934;6.958;2023-05-16T09:25:56;3.20;;;1.88;;
3677;SDS011;1855;50.934;6.958;2023-05-16T09:28:24;6.53;;;2.10;;
3677;SDS011;1855;50.934;6.958;2023-05-16T09:30:51;3.80;;;2.00;;
3677;SDS011;1855;50.934;6.958;2023-05-16T09:33:21;3.92;;;2.30;;
3677;SDS011;1855;50.934;6.958;2023-05-16T09:35:53;4.50;;;2.28;;
3677;SDS011;1855;50.934;6.958;2023-05-16T09:38:21;5.22;;;2.20;;
3677;SDS011;1855;50.934;6.958;2023-05-16T09:40:49;4.63;;;2.17;;
3677;SDS011;1855;50.934;6.958;2023-05-16T09:43:16;5.18;;;2.28;;
3677;SDS011;1855;50.934;6.958;2023-05-16T09:45:44;3.72;;;2.40;;
3677;SDS011;1855;50.934;6.958;2023-05-16T09:48:12;4.28;;;2.10;;
3677;SDS011;1855;50.934;6.958;2023-05-16T09:50:40;3.67;;;1.80;;
3677;SDS011;1855;50.934;6.958;2023-05-16T09:53:13;4.60;;;2.10;;
3677;SDS011;1855;50.934;6.958;2023-05-16T09:55:40;4.05;;;1.95;;
3677;SDS011;1855;50.934;6.958;2023-05-16T09:58:08;4.13;;;1.85;;
3677;SDS011;1855;50.934;6.958;2023-05-16T10:00:35;6.97;;;2.42;;
3677;SDS011;1855;50.934;6.958;2023-05-16T10:03:02;5.63;;;2.13;;
3677;SDS011;1855;50.934;6.958;2023-05-16T10:05:29;5.07;;;1.80;;
3677;SDS011;1855;50.934;6.958;2023-05-16T10:07:56;3.58;;;1.85;;
3677;SDS011;1855;50.934;6.958;2023-05-16T10:10:24;6.72;;;2.00;;
3677;SDS011;1855;50.934;6.958;2023-05-16T10:12:52;5.75;;;1.98;;
3677;SDS011;1855;50.934;6.958;2023-05-16T10:15:25;4.97;;;2.00;;
3677;SDS011;1855;50.934;6.958;2023-05-16T10:17:53;3.60;;;1.80;;
3677;SDS011;1855;50.934;6.958;2023-05-16T10:20:23;4.20;;;1.70;;
3677;SDS011;1855;50.934;6.958;2023-05-16T10:22:51;3.33;;;1.70;;
3677;SDS011;1855;50.934;6.958;2023-05-16T10:25:23;4.80;;;2.00;;
3677;SDS011;1855;50.934;6.958;2023-05-16T10:27:53;4.00;;;1.90;;
3677;SDS011;1855;50.934;6.958;2023-05-16T10:30:21;3.67;;;1.50;;
3677;SDS011;1855;50.934;6.958;2023-05-16T10:32:49;4.15;;;1.40;;
3677;SDS011;1855;50.934;6.958;2023-05-16T10:35:17;4.13;;;1.60;;
3677;SDS011;1855;50.934;6.958;2023-05-16T10:37:45;4.60;;;1.60;;
3677;SDS011;1855;50.934;6.958;2023-05-16T10:40:13;4.30;;;1.40;;
3677;SDS011;1855;50.934;6.958;2023-05-16T10:42:43;3.78;;;1.40;;
3677;SDS011;1855;50.934;6.958;2023-05-16T10:45:14;3.80;;;1.60;;
3677;SDS011;1855;50.934;6.958;2023-05-16T10:47:51;3.28;;;1.60;;
3677;SDS011;1855;50.934;6.958;2023-05-16T10:50:31;3.05;;;1.70;;
3677;SDS011;1855;50.934;6.958;2023-05-16T10:53:15;3.90;;;1.50;;
3677;SDS011;1855;50.934;6.958;2023-05-16T10:55:48;3.40;;;1.50;;
3677;SDS011;1855;50.934;6.958;2023-05-16T10:58:38;2.30;;;1.60;;
3677;SDS011;1855;50.934;6.958;2023-05-16T11:01:13;2.63;;;1.67;;
3677;SDS011;1855;50.934;6.958;2023-05-16T11:06:42;5.80;;;1.60;;
3677;SDS011;1855;50.934;6.958;2023-05-16T11:09:18;4.63;;;1.70;;
3677;SDS011;1855;50.934;6.958;2023-05-16T11:11:55;3.63;;;1.70;;
3677;SDS011;1855;50.934;6.958;2023-05-16T11:14:27;3.05;;;1.50;;
3677;SDS011;1855;50.934;6.958;2023-05-16T11:17:01;4.10;;;1.40;;
3677;SDS011;1855;50.934;6.958;2023-05-16T11:19:32;2.95;;;1.55;;
3677;SDS011;1855;50.934;6.958;2023-05-16T11:22:21;2.75;;;1.30;;
3677;SDS011;1855;50.934;6.958;2023-05-16T11:24:50;3.83;;;1.30;;
3677;SDS011;1855;50.934;6.958;2023-05-16T11:27:22;2.60;;;1.10;;
3677;SDS011;1855;50.934;6.958;2023-05-16T11:29:51;3.47;;;1.60;;
3677;SDS011;1855;50.934;6.958;2023-05-16T11:32:18;3.00;;;1.50;;
3677;SDS011;1855;50.934;6.958;2023-05-16T11:34:46;3.70;;;1.70;;
3677;SDS011;1855;50.934;6.958;2023-05-16T11:37:15;3.40;;;1.85;;
3677;SDS011;1855;50.934;6.958;2023-05-16T11:39:43;2.45;;;1.60;;
3677;SDS011;1855;50.934;6.958;2023-05-16T11:42:10;3.13;;;1.70;;
3677;SDS011;1855;50.934;6.958;2023-05-16T11:44:37;3.53;;;2.05;;
3677;SDS011;1855;50.934;6.958;2023-05-16T11:47:05;3.90;;;1.70;;
3677;SDS011;1855;50.934;6.958;2023-05-16T11:49:32;3.72;;;1.65;;
3677;SDS011;1855;50.934;6.958;2023-05-16T11:51:59;3.35;;;1.65;;
3677;SDS011;1855;50.934;6.958;2023-05-16T11:54:27;3.15;;;1.55;;
3677;SDS011;1855;50.934;6.958;2023-05-16T11:56:54;4.53;;;2.00;;
3677;SDS011;1855;50.934;6.958;2023-05-16T11:59:21;4.18;;;2.47;;
3677;SDS011;1855;50.934;6.958;2023-05-16T12:01:48;5.78;;;2.65;;
3677;SDS011;1855;50.934;6.958;2023-05-16T12:04:15;4.93;;;2.83;;
3677;SDS011;1855;50.934;6.958;2023-05-16T12:06:44;4.47;;;2.42;;
3677;SDS011;1855;50.934;6.958;2023-05-16T12:09:23;5.53;;;1.90;;
3677;SDS011;1855;50.934;6.958;2023-05-16T12:11:51;2.58;;;1.50;;
3677;SDS011;1855;50.934;6.958;2023-05-16T12:14:18;4.00;;;1.65;;
3677;SDS011;1855;50.934;6.958;2023-05-16T12:16:45;3.97;;;1.50;;
3677;SDS011;1855;50.934;6.958;2023-05-16T12:19:13;2.47;;;1.20;;
3677;SDS011;1855;50.934;6.958;2023-05-16T12:21:40;3.00;;;1.40;;
3677;SDS011;1855;50.934;6.958;2023-05-16T12:24:08;4.15;;;1.35;;
3677;SDS011;1855;50.934;6.958;2023-05-16T12:26:37;2.90;;;1.55;;
3677;SDS011;1855;50.934;6.958;2023-05-16T12:29:08;3.00;;;1.52;;
3677;SDS011;1855;50.934;6.958;2023-05-16T12:31:37;2.47;;;1.20;;
3677;SDS011;1855;50.934;6.958;2023-05-16T12:34:13;2.30;;;1.10;;
3677;SDS011;1855;50.934;6.958;2023-05-16T12:36:41;3.53;;;1.20;;
3677;SDS011;1855;50.934;6.958;2023-05-16T12:39:10;3.10;;;1.10;;
3677;SDS011;1855;50.934;6.958;2023-05-16T12:41:39;2.15;;;1.10;;
3677;SDS011;1855;50.934;6.958;2023-05-16T12:44:11;2.25;;;1.20;;
3677;SDS011;1855;50.934;6.958;2023-05-16T12:46:40;2.70;;;1.40;;
3677;SDS011;1855;50.934;6.958;2023-05-16T12:49:08;3.40;;;1.70;;
3677;SDS011;1855;50.934;6.958;2023-05-16T12:51:37;2.90;;;1.07;;
3677;SDS011;1855;50.934;6.958;2023-05-16T12:54:08;3.95;;;0.93;;
3677;SDS011;1855;50.934;6.958;2023-05-16T12:56:36;3.90;;;1.13;;
3677;SDS011;1855;50.934;6.958;2023-05-16T12:59:03;4.18;;;1.40;;
3677;SDS011;1855;50.934;6.958;2023-05-16T13:01:31;2.42;;;1.40;;
3677;SDS011;1855;50.934;6.958;2023-05-16T13:03:58;3.25;;;1.38;;
3677;SDS011;1855;50.934;6.958;2023-05-16T13:06:25;2.80;;;1.00;;
3677;SDS011;1855;50.934;6.958;2023-05-16T13:08:52;8.85;;;4.70;;
3677;SDS011;1855;50.934;6.958;2023-05-16T13:11:19;4.43;;;2.88;;
3677;SDS011;1855;50.934;6.958;2023-05-16T13:13:46;3.10;;;1.50;;
3677;SDS011;1855;50.934;6.958;2023-05-16T13:16:13;5.88;;;3.40;;
3677;SDS011;1855;50.934;6.958;2023-05-16T13:18:42;4.03;;;2.00;;
3677;SDS011;1855;50.934;6.958;2023-05-16T13:21:09;7.10;;;4.28;;
3677;SDS011;1855;50.934;6.958;2023-05-16T13:23:36;4.03;;;2.10;;
3677;SDS011;1855;50.934;6.958;2023-05-16T13:26:03;4.20;;;2.08;;
3677;SDS011;1855;50.934;6.958;2023-05-16T13:28:30;6.72;;;4.22;;
3677;SDS011;1855;50.934;6.958;2023-05-16T13:30:57;9.55;;;5.88;;
3677;SDS011;1855;50.934;6.958;2023-05-16T13:33:23;8.73;;;4.85;;
3677;SDS011;1855;50.934;6.958;2023-05-16T13:35:52;6.20;;;3.60;;
3677;SDS011;1855;50.934;6.958;2023-05-16T13:38:19;4.40;;;2.13;;
3677;SDS011;1855;50.934;6.958;2023-05-16T13:40:46;2.13;;;1.52;;
3677;SDS011;1855;50.934;6.958;2023-05-16T13:43:12;3.33;;;2.50;;
3677;SDS011;1855;50.934;6.958;2023-05-16T13:45:40;2.83;;;1.45;;
3677;SDS011;1855;50.934;6.958;2023-05-16T13:48:08;2.85;;;2.10;;
3677;SDS011;1855;50.934;6.958;2023-05-16T13:50:35;3.10;;;2.53;;
3677;SDS011;1855;50.934;6.958;2023-05-16T13:53:04;3.55;;;1.30;;
3677;SDS011;1855;50.934;6.958;2023-05-16T13:55:31;3.00;;;1.90;;
3677;SDS011;1855;50.934;6.958;2023-05-16T13:57:58;2.40;;;1.60;;
3677;SDS011;1855;50.934;6.958;2023-05-16T14:00:25;4.30;;;2.10;;
3677;SDS011;1855;50.934;6.958;2023-05-16T14:02:52;2.70;;;1.40;;
3677;SDS011;1855;50.934;6.958;2023-05-16T14:05:18;2.78;;;1.30;;
3677;SDS011;1855;50.934;6.958;2023-05-16T14:07:45;3.00;;;1.70;;
3677;SDS011;1855;50.934;6.958;2023-05-16T14:10:13;3.58;;;1.80;;
3677;SDS011;1855;50.934;6.958;2023-05-16T14:12:40;2.03;;;1.25;;
3677;SDS011;1855;50.934;6.958;2023-05-16T14:15:07;2.60;;;1.42;;
3677;SDS011;1855;50.934;6.958;2023-05-16T14:17:34;2.10;;;1.17;;
3677;SDS011;1855;50.934;6.958;2023-05-16T14:20:01;1.60;;;1.20;;
3677;SDS011;1855;50.934;6.958;2023-05-16T14:22:33;2.55;;;1.05;;
3677;SDS011;1855;50.934;6.958;2023-05-16T14:24:59;1.75;;;1.00;;
3677;SDS011;1855;50.934;6.958;2023-05-16T14:27:27;1.63;;;1.30;;
3677;SDS011;1855;50.934;6.958;2023-05-16T14:29:54;2.60;;;1.40;;
3677;SDS011;1855;50.934;6.958;2023-05-16T14:32:21;1.77;;;1.00;;
3677;SDS011;1855;50.934;6.958;2023-05-16T14:34:48;2.05;;;1.10;;
3677;SDS011;1855;50.934;6.958;2023-05-16T14:37:15;1.73;;;1.10;;
3677;SDS011;1855;50.934;6.958;2023-05-16T14:39:43;1.40;;;0.80;;
3677;SDS011;1855;50.934;6.958;2023-05-16T14:42:10;1.27;;;1.00;;
3677;SDS011;1855;50.934;6.958;2023-05-16T14:44:38;1.90;;;1.00;;
3677;SDS011;1855;50.934;6.958;2023-05-16T14:47:05;3.10;;;1.20;;
3677;SDS011;1855;50.934;6.958;2023-05-16T14:49:32;1.55;;;1.08;;
3677;SDS011;1855;50.934;6.958;2023-05-16T14:51:59;2.50;;;1.00;;
3677;SDS011;1855;50.934;6.958;2023-05-16T14:54:26;3.05;;;1.48;;
3677;SDS011;1855;50.934;6.958;2023-05-16T14:56:53;2.30;;;1.35;;
3677;SDS011;1855;50.934;6.958;2023-05-16T14:59:20;2.28;;;1.23;;
3677;SDS011;1855;50.934;6.958;2023-05-16T15:01:48;3.25;;;1.40;;
3677;SDS011;1855;50.934;6.958;2023-05-16T15:04:15;4.38;;;1.40;;
3677;SDS011;1855;50.934;6.958;2023-05-16T15:06:42;2.97;;;1.20;;
3677;SDS011;1855;50.934;6.958;2023-05-16T15:09:08;3.55;;;1.40;;
3677;SDS011;1855;50.934;6.958;2023-05-16T15:11:35;2.83;;;1.60;;
3677;SDS011;1855;50.934;6.958;2023-05-16T15:14:02;4.25;;;2.20;;
3677;SDS011;1855;50.934;6.958;2023-05-16T15:16:28;2.10;;;1.10;;